EIN23F EIDW-EGKK
Flight info
| Callsign | EIN23F |
|---|---|
| Flight time | 1h 9m |
| Altitude | 33000 |
| Route | ENDEQ3J ENDEQ Q36 EPOXI L15 KEPAD L151 DISIT |
| Aircraft | A320/M-SDE3FGHIRWY/LB1 |
Departure
| Time | 2026-05-04 18:31 |
|---|---|
| Airport | Dublin Airport (EIDW) |
Arrival
| Time | 2026-05-04 19:41 |
|---|---|
| Airport | London Gatwick Airport (EGKK) |
| Time | Latitude | Longitude | Altitude | Speed | Heading |
|---|---|---|---|---|---|
| 2026-05-04 18:07 | 53.42466 | -6.24343 | 215 ft | 0 kts | 135° |
| 2026-05-04 18:19 | 53.42466 | -6.24344 | 211 ft | 1 kts | 135° |
| 2026-05-04 18:19 | 53.42476 | -6.24360 | 214 ft | 3 kts | 135° |
| 2026-05-04 18:20 | 53.42490 | -6.24382 | 215 ft | 2 kts | 136° |
| 2026-05-04 18:20 | 53.42505 | -6.24401 | 215 ft | 3 kts | 164° |
| 2026-05-04 18:20 | 53.42523 | -6.24404 | 213 ft | 3 kts | 197° |
| 2026-05-04 18:20 | 53.42536 | -6.24395 | 211 ft | 1 kts | 213° |
| 2026-05-04 18:21 | 53.42537 | -6.24394 | 211 ft | 0 kts | 213° |
| 2026-05-04 18:23 | 53.42535 | -6.24397 | 211 ft | 2 kts | 213° |
| 2026-05-04 18:23 | 53.42497 | -6.24440 | 215 ft | 6 kts | 218° |
| 2026-05-04 18:24 | 53.42471 | -6.24486 | 211 ft | 5 kts | 233° |
| 2026-05-04 18:24 | 53.42448 | -6.24553 | 214 ft | 8 kts | 241° |
| 2026-05-04 18:24 | 53.42423 | -6.24635 | 217 ft | 7 kts | 241° |
| 2026-05-04 18:24 | 53.42397 | -6.24705 | 212 ft | 7 kts | 234° |
| 2026-05-04 18:25 | 53.42367 | -6.24762 | 211 ft | 7 kts | 230° |
| 2026-05-04 18:25 | 53.42361 | -6.24843 | 211 ft | 8 kts | 296° |
| 2026-05-04 18:25 | 53.42407 | -6.24897 | 212 ft | 9 kts | 334° |
| 2026-05-04 18:25 | 53.42470 | -6.24945 | 214 ft | 9 kts | 336° |
| 2026-05-04 18:26 | 53.42524 | -6.24985 | 211 ft | 8 kts | 336° |
| 2026-05-04 18:26 | 53.42576 | -6.25020 | 211 ft | 10 kts | 339° |
| 2026-05-04 18:26 | 53.42643 | -6.25067 | 211 ft | 10 kts | 336° |
| 2026-05-04 18:26 | 53.42700 | -6.25120 | 215 ft | 9 kts | 314° |
| 2026-05-04 18:27 | 53.42763 | -6.25220 | 211 ft | 17 kts | 334° |
| 2026-05-04 18:27 | 53.42882 | -6.25308 | 220 ft | 20 kts | 337° |
| 2026-05-04 18:27 | 53.43013 | -6.25403 | 213 ft | 22 kts | 336° |
| 2026-05-04 18:27 | 53.43149 | -6.25501 | 214 ft | 20 kts | 337° |
| 2026-05-04 18:28 | 53.43279 | -6.25595 | 211 ft | 20 kts | 336° |
| 2026-05-04 18:28 | 53.43359 | -6.25649 | 216 ft | 10 kts | 348° |
| 2026-05-04 18:28 | 53.43408 | -6.25557 | 211 ft | 14 kts | 89° |
| 2026-05-04 18:28 | 53.43398 | -6.25376 | 211 ft | 17 kts | 96° |
| 2026-05-04 18:29 | 53.43385 | -6.25165 | 213 ft | 19 kts | 94° |
| 2026-05-04 18:29 | 53.43373 | -6.24929 | 211 ft | 22 kts | 95° |
| 2026-05-04 18:29 | 53.43359 | -6.24690 | 211 ft | 17 kts | 94° |
| 2026-05-04 18:29 | 53.43409 | -6.24561 | 212 ft | 12 kts | 15° |
| 2026-05-04 18:30 | 53.43524 | -6.24594 | 216 ft | 7 kts | 282° |
| 2026-05-04 18:30 | 53.43525 | -6.24611 | 214 ft | 6 kts | 276° |
| 2026-05-04 18:30 | 53.43559 | -6.25206 | 211 ft | 91 kts | 275° |
| 2026-05-04 18:31 | 53.43639 | -6.26635 | 217 ft | 151 kts | 275° |
| 2026-05-04 18:31 | 53.43743 | -6.28446 | 757 ft | 156 kts | 276° |
| 2026-05-04 18:31 | 53.44145 | -6.30104 | 1478 ft | 156 kts | 314° |
| 2026-05-04 18:31 | 53.44949 | -6.31424 | 1995 ft | 172 kts | 317° |
| 2026-05-04 18:32 | 53.45780 | -6.33056 | 2366 ft | 197 kts | 308° |
| 2026-05-04 18:32 | 53.46821 | -6.34646 | 2992 ft | 207 kts | 334° |
| 2026-05-04 18:32 | 53.48227 | -6.35132 | 3874 ft | 211 kts | 359° |
| 2026-05-04 18:32 | 53.49704 | -6.35074 | 4748 ft | 214 kts | 360° |
| 2026-05-04 18:33 | 53.51203 | -6.34804 | 5540 ft | 223 kts | 18° |
| 2026-05-04 18:33 | 53.52423 | -6.33159 | 6246 ft | 239 kts | 57° |
| 2026-05-04 18:33 | 53.52936 | -6.30371 | 6645 ft | 265 kts | 84° |
| 2026-05-04 18:33 | 53.52977 | -6.27160 | 7210 ft | 282 kts | 92° |
| 2026-05-04 18:34 | 53.52838 | -6.23843 | 8072 ft | 287 kts | 95° |
| 2026-05-04 18:34 | 53.52660 | -6.20469 | 8815 ft | 292 kts | 94° |
| 2026-05-04 18:34 | 53.52499 | -6.17072 | 9030 ft | 292 kts | 93° |
| 2026-05-04 18:34 | 53.52374 | -6.13656 | 9127 ft | 294 kts | 92° |
| 2026-05-04 18:35 | 53.52284 | -6.10215 | 10018 ft | 295 kts | 91° |
| 2026-05-04 18:35 | 53.52124 | -6.06707 | 10578 ft | 313 kts | 99° |
| 2026-05-04 18:35 | 53.51613 | -6.03004 | 10886 ft | 336 kts | 103° |
| 2026-05-04 18:35 | 53.51053 | -5.99127 | 11490 ft | 346 kts | 103° |
| 2026-05-04 18:36 | 53.50479 | -5.95159 | 12256 ft | 352 kts | 103° |
| 2026-05-04 18:36 | 53.49900 | -5.91150 | 13053 ft | 356 kts | 103° |
| 2026-05-04 18:36 | 53.49312 | -5.87095 | 13880 ft | 359 kts | 104° |
| 2026-05-04 18:36 | 53.48721 | -5.82997 | 14571 ft | 363 kts | 103° |
| 2026-05-04 18:37 | 53.48164 | -5.78845 | 15275 ft | 366 kts | 102° |
| 2026-05-04 18:37 | 53.47638 | -5.74656 | 16000 ft | 368 kts | 101° |
| 2026-05-04 18:37 | 53.47125 | -5.70435 | 16726 ft | 370 kts | 101° |
| 2026-05-04 18:37 | 53.46610 | -5.66181 | 17440 ft | 373 kts | 100° |
| 2026-05-04 18:38 | 53.46084 | -5.61904 | 18142 ft | 376 kts | 101° |
| 2026-05-04 18:38 | 53.45543 | -5.57596 | 18770 ft | 379 kts | 101° |
| 2026-05-04 18:38 | 53.44989 | -5.53261 | 19384 ft | 382 kts | 101° |
| 2026-05-04 18:38 | 53.44548 | -5.48864 | 20007 ft | 383 kts | 93° |
| 2026-05-04 18:39 | 53.44434 | -5.44424 | 20791 ft | 380 kts | 91° |
| 2026-05-04 18:39 | 53.44331 | -5.39966 | 21465 ft | 381 kts | 91° |
| 2026-05-04 18:39 | 53.44225 | -5.35538 | 22092 ft | 384 kts | 91° |
| 2026-05-04 18:39 | 53.44116 | -5.31046 | 22707 ft | 387 kts | 91° |
| 2026-05-04 18:40 | 53.44002 | -5.26523 | 23315 ft | 389 kts | 91° |
| 2026-05-04 18:40 | 53.43885 | -5.21974 | 23858 ft | 392 kts | 91° |
| 2026-05-04 18:40 | 53.43762 | -5.17398 | 24334 ft | 395 kts | 91° |
| 2026-05-04 18:40 | 53.43631 | -5.12776 | 24787 ft | 398 kts | 91° |
| 2026-05-04 18:41 | 53.43488 | -5.08132 | 25243 ft | 400 kts | 91° |
| 2026-05-04 18:41 | 53.43341 | -5.03465 | 25694 ft | 402 kts | 91° |
| 2026-05-04 18:41 | 53.43189 | -4.98772 | 26133 ft | 405 kts | 91° |
| 2026-05-04 18:41 | 53.43029 | -4.94042 | 26563 ft | 407 kts | 91° |
| 2026-05-04 18:42 | 53.42867 | -4.89356 | 26978 ft | 409 kts | 91° |
| 2026-05-04 18:42 | 53.42702 | -4.84514 | 27399 ft | 411 kts | 91° |
| 2026-05-04 18:42 | 53.42542 | -4.79714 | 27811 ft | 414 kts | 91° |
| 2026-05-04 18:42 | 53.42385 | -4.74885 | 28217 ft | 416 kts | 91° |
| 2026-05-04 18:43 | 53.42227 | -4.70034 | 28617 ft | 418 kts | 91° |
| 2026-05-04 18:43 | 53.42063 | -4.65153 | 29003 ft | 420 kts | 91° |
| 2026-05-04 18:43 | 53.41895 | -4.60249 | 29412 ft | 422 kts | 91° |
| 2026-05-04 18:43 | 53.41721 | -4.55335 | 29815 ft | 423 kts | 91° |
| 2026-05-04 18:44 | 53.41543 | -4.50399 | 30181 ft | 425 kts | 91° |
| 2026-05-04 18:44 | 53.41183 | -4.40466 | 30763 ft | 429 kts | 91° |
| 2026-05-04 18:44 | 53.41000 | -4.35460 | 31041 ft | 431 kts | 91° |
| 2026-05-04 18:45 | 53.40813 | -4.30442 | 31312 ft | 433 kts | 91° |
| 2026-05-04 18:45 | 53.40622 | -4.25397 | 31577 ft | 435 kts | 91° |
| 2026-05-04 18:45 | 53.40494 | -4.22041 | 31750 ft | 436 kts | 91° |
| 2026-05-04 18:45 | 53.40237 | -4.15264 | 32203 ft | 435 kts | 91° |
| 2026-05-04 18:46 | 53.40110 | -4.11924 | 32441 ft | 434 kts | 92° |
| 2026-05-04 18:46 | 53.39913 | -4.06874 | 32849 ft | 433 kts | 92° |
| 2026-05-04 18:46 | 53.39712 | -4.01854 | 33050 ft | 431 kts | 92° |
| 2026-05-04 18:46 | 53.39511 | -3.96915 | 33083 ft | 419 kts | 92° |
| 2026-05-04 18:47 | 53.39312 | -3.92092 | 33078 ft | 412 kts | 92° |
| 2026-05-04 18:47 | 53.38921 | -3.82558 | 33079 ft | 409 kts | 92° |
| 2026-05-04 18:48 | 53.38522 | -3.73044 | 33084 ft | 409 kts | 92° |
| 2026-05-04 18:48 | 53.37776 | -3.63605 | 33082 ft | 412 kts | 104° |
| 2026-05-04 18:49 | 53.35650 | -3.54658 | 33082 ft | 414 kts | 111° |
| 2026-05-04 18:49 | 53.33201 | -3.45927 | 33075 ft | 417 kts | 120° |
| 2026-05-04 18:50 | 53.29547 | -3.38362 | 33073 ft | 420 kts | 129° |
| 2026-05-04 18:50 | 53.25686 | -3.31043 | 33069 ft | 420 kts | 129° |
| 2026-05-04 18:51 | 53.21815 | -3.23742 | 33069 ft | 420 kts | 129° |
| 2026-05-04 18:51 | 53.17947 | -3.16457 | 33087 ft | 419 kts | 128° |
| 2026-05-04 18:52 | 53.14083 | -3.09202 | 33088 ft | 418 kts | 128° |
| 2026-05-04 18:52 | 53.10219 | -3.01975 | 33079 ft | 417 kts | 128° |
| 2026-05-04 18:53 | 53.06362 | -2.94767 | 33078 ft | 417 kts | 128° |
| 2026-05-04 18:53 | 53.02502 | -2.87585 | 33071 ft | 416 kts | 129° |
| 2026-05-04 18:54 | 52.98644 | -2.80433 | 33054 ft | 416 kts | 129° |
| 2026-05-04 18:54 | 52.94785 | -2.73289 | 33075 ft | 415 kts | 129° |
| 2026-05-04 18:55 | 52.90931 | -2.66171 | 33069 ft | 414 kts | 129° |
| 2026-05-04 18:55 | 52.85152 | -2.55564 | 33057 ft | 413 kts | 129° |
| 2026-05-04 18:56 | 52.81246 | -2.48599 | 33047 ft | 414 kts | 135° |
| 2026-05-04 18:56 | 52.76560 | -2.42989 | 33043 ft | 417 kts | 143° |
| 2026-05-04 18:57 | 52.71732 | -2.37668 | 33052 ft | 418 kts | 145° |
| 2026-05-04 18:57 | 52.66870 | -2.32336 | 33010 ft | 425 kts | 145° |
| 2026-05-04 18:58 | 52.64396 | -2.29621 | 31930 ft | 429 kts | 145° |
| 2026-05-04 18:58 | 52.61904 | -2.26882 | 31297 ft | 427 kts | 145° |
| 2026-05-04 18:58 | 52.59457 | -2.24198 | 30857 ft | 420 kts | 145° |
| 2026-05-04 18:58 | 52.57040 | -2.21551 | 30319 ft | 416 kts | 145° |
| 2026-05-04 18:59 | 52.54638 | -2.18929 | 29738 ft | 413 kts | 146° |
| 2026-05-04 18:59 | 52.52262 | -2.16335 | 29219 ft | 407 kts | 146° |
| 2026-05-04 18:59 | 52.49919 | -2.13779 | 28711 ft | 402 kts | 147° |
| 2026-05-04 18:59 | 52.47606 | -2.11261 | 28211 ft | 397 kts | 148° |
| 2026-05-04 19:00 | 52.45318 | -2.08778 | 27731 ft | 392 kts | 148° |
| 2026-05-04 19:00 | 52.43061 | -2.06334 | 27269 ft | 387 kts | 148° |
| 2026-05-04 19:00 | 52.40825 | -2.03914 | 26806 ft | 383 kts | 149° |
| 2026-05-04 19:00 | 52.38611 | -2.01519 | 26358 ft | 379 kts | 149° |
| 2026-05-04 19:01 | 52.36420 | -1.99150 | 25915 ft | 376 kts | 149° |
| 2026-05-04 19:01 | 52.34246 | -1.96803 | 25449 ft | 373 kts | 150° |
| 2026-05-04 19:01 | 52.32093 | -1.94481 | 25001 ft | 370 kts | 150° |
| 2026-05-04 19:01 | 52.29954 | -1.92179 | 24537 ft | 367 kts | 150° |
| 2026-05-04 19:02 | 52.27823 | -1.89891 | 24074 ft | 365 kts | 151° |
| 2026-05-04 19:02 | 52.25709 | -1.87622 | 23589 ft | 363 kts | 150° |
| 2026-05-04 19:02 | 52.23598 | -1.85358 | 23068 ft | 361 kts | 150° |
| 2026-05-04 19:02 | 52.21512 | -1.83118 | 22578 ft | 358 kts | 150° |
| 2026-05-04 19:03 | 52.19442 | -1.80897 | 22118 ft | 355 kts | 150° |
| 2026-05-04 19:03 | 52.17391 | -1.78702 | 21649 ft | 352 kts | 150° |
| 2026-05-04 19:03 | 52.15350 | -1.76523 | 21185 ft | 350 kts | 150° |
| 2026-05-04 19:03 | 52.13319 | -1.74356 | 20717 ft | 347 kts | 149° |
| 2026-05-04 19:04 | 52.11303 | -1.72209 | 20265 ft | 345 kts | 149° |
| 2026-05-04 19:04 | 52.09299 | -1.70077 | 19854 ft | 343 kts | 149° |
| 2026-05-04 19:04 | 52.07304 | -1.67952 | 19586 ft | 342 kts | 149° |
| 2026-05-04 19:04 | 52.05319 | -1.65836 | 19291 ft | 341 kts | 149° |
| 2026-05-04 19:05 | 52.03342 | -1.63734 | 18986 ft | 339 kts | 149° |
| 2026-05-04 19:05 | 52.01367 | -1.61639 | 18689 ft | 338 kts | 148° |
| 2026-05-04 19:05 | 51.99404 | -1.59564 | 18395 ft | 337 kts | 148° |
| 2026-05-04 19:05 | 51.97441 | -1.57490 | 18073 ft | 336 kts | 148° |
| 2026-05-04 19:06 | 51.95494 | -1.55432 | 17948 ft | 334 kts | 148° |
| 2026-05-04 19:06 | 51.93544 | -1.53371 | 17945 ft | 335 kts | 148° |
| 2026-05-04 19:06 | 51.91591 | -1.51309 | 17941 ft | 335 kts | 148° |
| 2026-05-04 19:06 | 51.89640 | -1.49254 | 17944 ft | 335 kts | 148° |
| 2026-05-04 19:07 | 51.87685 | -1.47197 | 17939 ft | 335 kts | 148° |
| 2026-05-04 19:07 | 51.85733 | -1.45147 | 17925 ft | 335 kts | 148° |
| 2026-05-04 19:07 | 51.83778 | -1.43092 | 17928 ft | 335 kts | 148° |
| 2026-05-04 19:07 | 51.81820 | -1.41038 | 17933 ft | 335 kts | 148° |
| 2026-05-04 19:08 | 51.79866 | -1.38990 | 17935 ft | 335 kts | 148° |
| 2026-05-04 19:08 | 51.77915 | -1.36946 | 17926 ft | 334 kts | 148° |
| 2026-05-04 19:08 | 51.75969 | -1.34909 | 17927 ft | 334 kts | 148° |
| 2026-05-04 19:08 | 51.74013 | -1.32869 | 17931 ft | 335 kts | 148° |
| 2026-05-04 19:09 | 51.72054 | -1.30832 | 17923 ft | 336 kts | 148° |
| 2026-05-04 19:09 | 51.70092 | -1.28794 | 17921 ft | 336 kts | 148° |
| 2026-05-04 19:09 | 51.68131 | -1.26751 | 17922 ft | 336 kts | 148° |
| 2026-05-04 19:09 | 51.66173 | -1.24706 | 17465 ft | 337 kts | 148° |
| 2026-05-04 19:10 | 51.64169 | -1.22618 | 16586 ft | 348 kts | 148° |
| 2026-05-04 19:10 | 51.62124 | -1.20490 | 16006 ft | 350 kts | 148° |
| 2026-05-04 19:10 | 51.60086 | -1.18376 | 15527 ft | 349 kts | 148° |
| 2026-05-04 19:10 | 51.58052 | -1.16270 | 15112 ft | 345 kts | 148° |
| 2026-05-04 19:11 | 51.56066 | -1.14217 | 15017 ft | 332 kts | 147° |
| 2026-05-04 19:11 | 51.54143 | -1.12232 | 15029 ft | 326 kts | 147° |
| 2026-05-04 19:11 | 51.52239 | -1.10268 | 15029 ft | 324 kts | 147° |
| 2026-05-04 19:11 | 51.50348 | -1.08317 | 15030 ft | 324 kts | 147° |
| 2026-05-04 19:12 | 51.48449 | -1.06361 | 15028 ft | 323 kts | 147° |
| 2026-05-04 19:12 | 51.44659 | -1.02459 | 15028 ft | 324 kts | 147° |
| 2026-05-04 19:12 | 51.42763 | -1.00511 | 15024 ft | 324 kts | 148° |
| 2026-05-04 19:13 | 51.40865 | -0.98568 | 15023 ft | 324 kts | 147° |
| 2026-05-04 19:13 | 51.38968 | -0.96627 | 15024 ft | 324 kts | 147° |
| 2026-05-04 19:13 | 51.37070 | -0.94683 | 15022 ft | 324 kts | 147° |
| 2026-05-04 19:13 | 51.35168 | -0.92730 | 15023 ft | 324 kts | 147° |
| 2026-05-04 19:14 | 51.33271 | -0.90784 | 15023 ft | 324 kts | 147° |
| 2026-05-04 19:14 | 51.31369 | -0.88835 | 15029 ft | 325 kts | 146° |
| 2026-05-04 19:14 | 51.29460 | -0.86884 | 14560 ft | 328 kts | 146° |
| 2026-05-04 19:14 | 51.27517 | -0.84903 | 13536 ft | 333 kts | 146° |
| 2026-05-04 19:15 | 51.25607 | -0.82963 | 13142 ft | 317 kts | 146° |
| 2026-05-04 19:15 | 51.23776 | -0.81105 | 12580 ft | 308 kts | 147° |
| 2026-05-04 19:15 | 51.21988 | -0.79292 | 11952 ft | 302 kts | 147° |
| 2026-05-04 19:15 | 51.20229 | -0.77505 | 11309 ft | 297 kts | 147° |
| 2026-05-04 19:16 | 51.18497 | -0.75745 | 10674 ft | 293 kts | 148° |
| 2026-05-04 19:16 | 51.16794 | -0.74018 | 10048 ft | 288 kts | 148° |
| 2026-05-04 19:16 | 51.15111 | -0.72313 | 9344 ft | 285 kts | 148° |
| 2026-05-04 19:16 | 51.13446 | -0.70628 | 8718 ft | 280 kts | 148° |
| 2026-05-04 19:17 | 51.11809 | -0.68975 | 8600 ft | 280 kts | 148° |
| 2026-05-04 19:17 | 51.10163 | -0.67316 | 8455 ft | 279 kts | 148° |
| 2026-05-04 19:17 | 51.08536 | -0.65673 | 7980 ft | 274 kts | 147° |
| 2026-05-04 19:17 | 51.06875 | -0.63981 | 7247 ft | 286 kts | 144° |
| 2026-05-04 19:18 | 51.05443 | -0.61886 | 7066 ft | 277 kts | 129° |
| 2026-05-04 19:18 | 51.04414 | -0.59331 | 7009 ft | 274 kts | 116° |
| 2026-05-04 19:18 | 51.03567 | -0.56608 | 7003 ft | 275 kts | 116° |
| 2026-05-04 19:18 | 51.02711 | -0.53891 | 6875 ft | 275 kts | 116° |
| 2026-05-04 19:19 | 51.01855 | -0.51177 | 6758 ft | 274 kts | 116° |
| 2026-05-04 19:19 | 51.01005 | -0.48474 | 6647 ft | 274 kts | 116° |
| 2026-05-04 19:19 | 51.00156 | -0.45775 | 6522 ft | 273 kts | 116° |
| 2026-05-04 19:19 | 50.99307 | -0.43077 | 6399 ft | 273 kts | 116° |
| 2026-05-04 19:20 | 50.98457 | -0.40383 | 6269 ft | 273 kts | 116° |
| 2026-05-04 19:20 | 50.97770 | -0.37605 | 6139 ft | 270 kts | 98° |
| 2026-05-04 19:20 | 50.97898 | -0.34674 | 6009 ft | 268 kts | 70° |
| 2026-05-04 19:20 | 50.98887 | -0.32202 | 5879 ft | 266 kts | 42° |
| 2026-05-04 19:21 | 51.00460 | -0.30820 | 5742 ft | 254 kts | 13° |
| 2026-05-04 19:21 | 51.02162 | -0.30865 | 5623 ft | 242 kts | 343° |
| 2026-05-04 19:21 | 51.03536 | -0.32250 | 5490 ft | 232 kts | 310° |
| 2026-05-04 19:21 | 51.04191 | -0.34499 | 5364 ft | 223 kts | 279° |
| 2026-05-04 19:22 | 51.04308 | -0.36905 | 5255 ft | 213 kts | 272° |
| 2026-05-04 19:22 | 51.04331 | -0.39203 | 5138 ft | 205 kts | 271° |
| 2026-05-04 19:22 | 51.04337 | -0.41461 | 5010 ft | 204 kts | 271° |
| 2026-05-04 19:22 | 51.04340 | -0.43704 | 4873 ft | 202 kts | 271° |
| 2026-05-04 19:23 | 51.04349 | -0.45921 | 4527 ft | 200 kts | 274° |
| 2026-05-04 19:23 | 51.04785 | -0.47966 | 4148 ft | 196 kts | 310° |
| 2026-05-04 19:23 | 51.05893 | -0.49098 | 3801 ft | 190 kts | 350° |
| 2026-05-04 19:23 | 51.07156 | -0.48848 | 3463 ft | 185 kts | 28° |
| 2026-05-04 19:24 | 51.08204 | -0.47673 | 3140 ft | 184 kts | 40° |
| 2026-05-04 19:24 | 51.09175 | -0.46364 | 3010 ft | 183 kts | 41° |
| 2026-05-04 19:24 | 51.10139 | -0.45036 | 3000 ft | 184 kts | 41° |
| 2026-05-04 19:24 | 51.11107 | -0.43704 | 3009 ft | 184 kts | 41° |
| 2026-05-04 19:25 | 51.12020 | -0.42286 | 2997 ft | 184 kts | 57° |
| 2026-05-04 19:25 | 51.12378 | -0.40420 | 3014 ft | 170 kts | 85° |
| 2026-05-04 19:25 | 51.12506 | -0.38657 | 3008 ft | 151 kts | 74° |
| 2026-05-04 19:25 | 51.12616 | -0.37070 | 3001 ft | 141 kts | 94° |
| 2026-05-04 19:26 | 51.12456 | -0.35533 | 2881 ft | 138 kts | 92° |
| 2026-05-04 19:26 | 51.12555 | -0.34580 | 2938 ft | 132 kts | 57° |
| 2026-05-04 19:26 | 51.12951 | -0.33230 | 3007 ft | 142 kts | 76° |
| 2026-05-04 19:26 | 51.13091 | -0.31699 | 2924 ft | 136 kts | 77° |
| 2026-05-04 19:27 | 51.13278 | -0.30223 | 2968 ft | 134 kts | 76° |
| 2026-05-04 19:27 | 51.13471 | -0.28771 | 3012 ft | 132 kts | 76° |
| 2026-05-04 19:27 | 51.13666 | -0.27339 | 3040 ft | 132 kts | 76° |
| 2026-05-04 19:27 | 51.13863 | -0.25919 | 3029 ft | 131 kts | 76° |
| 2026-05-04 19:28 | 51.14029 | -0.24494 | 3028 ft | 132 kts | 88° |
| 2026-05-04 19:28 | 51.13606 | -0.23223 | 3020 ft | 140 kts | 143° |
| 2026-05-04 19:28 | 51.12648 | -0.22850 | 3063 ft | 146 kts | 175° |
| 2026-05-04 19:28 | 51.11632 | -0.22889 | 3047 ft | 146 kts | 180° |
| 2026-05-04 19:29 | 51.10614 | -0.22990 | 3042 ft | 146 kts | 181° |
| 2026-05-04 19:29 | 51.09598 | -0.23101 | 3038 ft | 146 kts | 181° |
| 2026-05-04 19:29 | 51.08582 | -0.23208 | 3023 ft | 148 kts | 181° |
| 2026-05-04 19:29 | 51.07554 | -0.23319 | 3030 ft | 149 kts | 181° |
| 2026-05-04 19:30 | 51.06518 | -0.23430 | 3033 ft | 149 kts | 181° |
| 2026-05-04 19:30 | 51.05485 | -0.23539 | 3032 ft | 149 kts | 181° |
| 2026-05-04 19:30 | 51.04450 | -0.23651 | 3033 ft | 149 kts | 181° |
| 2026-05-04 19:30 | 51.03416 | -0.23835 | 3016 ft | 151 kts | 198° |
| 2026-05-04 19:31 | 51.02663 | -0.24928 | 3004 ft | 150 kts | 251° |
| 2026-05-04 19:31 | 51.02429 | -0.26543 | 3057 ft | 151 kts | 266° |
| 2026-05-04 19:31 | 51.02344 | -0.28204 | 3046 ft | 152 kts | 266° |
| 2026-05-04 19:31 | 51.02241 | -0.29962 | 3049 ft | 164 kts | 266° |
| 2026-05-04 19:32 | 51.02128 | -0.31779 | 3040 ft | 166 kts | 266° |
| 2026-05-04 19:32 | 51.02016 | -0.33606 | 3024 ft | 167 kts | 266° |
| 2026-05-04 19:32 | 51.01905 | -0.35441 | 3037 ft | 167 kts | 266° |
| 2026-05-04 19:32 | 51.01791 | -0.37270 | 3036 ft | 167 kts | 266° |
| 2026-05-04 19:33 | 51.01679 | -0.39102 | 3030 ft | 167 kts | 266° |
| 2026-05-04 19:33 | 51.01562 | -0.40946 | 3037 ft | 169 kts | 266° |
| 2026-05-04 19:33 | 51.01686 | -0.42755 | 3003 ft | 164 kts | 302° |
| 2026-05-04 19:33 | 51.02426 | -0.44093 | 3043 ft | 162 kts | 322° |
| 2026-05-04 19:34 | 51.03301 | -0.45212 | 3037 ft | 162 kts | 326° |
| 2026-05-04 19:34 | 51.04194 | -0.46299 | 3034 ft | 162 kts | 326° |
| 2026-05-04 19:34 | 51.05082 | -0.47375 | 3021 ft | 159 kts | 326° |
| 2026-05-04 19:34 | 51.05957 | -0.48436 | 3034 ft | 157 kts | 326° |
| 2026-05-04 19:35 | 51.06826 | -0.49484 | 3035 ft | 157 kts | 327° |
| 2026-05-04 19:35 | 51.07808 | -0.50049 | 3012 ft | 146 kts | 9° |
| 2026-05-04 19:35 | 51.08671 | -0.49406 | 3043 ft | 136 kts | 39° |
| 2026-05-04 19:35 | 51.09365 | -0.48407 | 3036 ft | 134 kts | 45° |
| 2026-05-04 19:36 | 51.10020 | -0.47359 | 3033 ft | 133 kts | 46° |
| 2026-05-04 19:36 | 51.10501 | -0.46121 | 3041 ft | 133 kts | 72° |
| 2026-05-04 19:36 | 51.10808 | -0.44726 | 3029 ft | 134 kts | 67° |
| 2026-05-04 19:36 | 51.11150 | -0.43351 | 3034 ft | 134 kts | 69° |
| 2026-05-04 19:37 | 51.11460 | -0.41959 | 3032 ft | 134 kts | 70° |
| 2026-05-04 19:37 | 51.11810 | -0.40594 | 3037 ft | 133 kts | 69° |
| 2026-05-04 19:37 | 51.12024 | -0.39143 | 2817 ft | 137 kts | 76° |
| 2026-05-04 19:37 | 51.12231 | -0.37629 | 2495 ft | 141 kts | 76° |
| 2026-05-04 19:38 | 51.12438 | -0.36132 | 2262 ft | 137 kts | 76° |
| 2026-05-04 19:38 | 51.12639 | -0.34686 | 2042 ft | 131 kts | 75° |
| 2026-05-04 19:38 | 51.12834 | -0.33284 | 1854 ft | 129 kts | 76° |
| 2026-05-04 19:38 | 51.13027 | -0.31902 | 1681 ft | 128 kts | 75° |
| 2026-05-04 19:39 | 51.13219 | -0.30528 | 1498 ft | 127 kts | 75° |
| 2026-05-04 19:39 | 51.13411 | -0.29146 | 1331 ft | 128 kts | 75° |
| 2026-05-04 19:39 | 51.13602 | -0.27770 | 1144 ft | 127 kts | 76° |
| 2026-05-04 19:39 | 51.13794 | -0.26390 | 972 ft | 128 kts | 76° |
| 2026-05-04 19:40 | 51.13986 | -0.25009 | 791 ft | 128 kts | 77° |
| 2026-05-04 19:40 | 51.14173 | -0.23621 | 636 ft | 130 kts | 77° |
| 2026-05-04 19:40 | 51.14357 | -0.22217 | 436 ft | 129 kts | 76° |
| 2026-05-04 19:40 | 51.14554 | -0.20831 | 266 ft | 129 kts | 76° |
| 2026-05-04 19:41 | 51.14734 | -0.19511 | 209 ft | 108 kts | 77° |
| 2026-05-04 19:41 | 51.14848 | -0.18760 | 204 ft | 26 kts | 77° |
| 2026-05-04 19:41 | 51.14929 | -0.18535 | 210 ft | 21 kts | 49° |
| 2026-05-04 19:41 | 51.15011 | -0.18377 | 217 ft | 13 kts | 51° |
| 2026-05-04 19:42 | 51.15040 | -0.18319 | 216 ft | 0 kts | 51° |
| 2026-05-04 19:42 | 51.15046 | -0.18309 | 211 ft | 5 kts | 51° |
| 2026-05-04 19:42 | 51.15084 | -0.18234 | 205 ft | 10 kts | 51° |
| 2026-05-04 19:42 | 51.15103 | -0.18201 | 205 ft | 2 kts | 37° |
| 2026-05-04 19:43 | 51.15131 | -0.18190 | 206 ft | 2 kts | 358° |
| 2026-05-04 19:43 | 51.15134 | -0.18191 | 206 ft | 0 kts | 353° |
| 2026-05-04 19:47 | 51.15138 | -0.18192 | 206 ft | 2 kts | 353° |
| 2026-05-04 19:48 | 51.15167 | -0.18193 | 206 ft | 6 kts | 7° |
| 2026-05-04 19:48 | 51.15208 | -0.18136 | 210 ft | 11 kts | 63° |
| 2026-05-04 19:48 | 51.15224 | -0.18030 | 210 ft | 9 kts | 80° |
| 2026-05-04 19:48 | 51.15239 | -0.17903 | 206 ft | 14 kts | 80° |
| 2026-05-04 19:49 | 51.15263 | -0.17724 | 212 ft | 18 kts | 77° |
| 2026-05-04 19:49 | 51.15294 | -0.17493 | 205 ft | 24 kts | 79° |
| 2026-05-04 19:49 | 51.15317 | -0.17260 | 212 ft | 24 kts | 78° |
| 2026-05-04 19:49 | 51.15345 | -0.17043 | 209 ft | 19 kts | 77° |
| 2026-05-04 19:50 | 51.15373 | -0.16843 | 202 ft | 17 kts | 77° |
| 2026-05-04 19:50 | 51.15397 | -0.16677 | 206 ft | 14 kts | 76° |
| 2026-05-04 19:50 | 51.15414 | -0.16542 | 206 ft | 12 kts | 91° |
| 2026-05-04 19:50 | 51.15395 | -0.16452 | 205 ft | 6 kts | 90° |
| 2026-05-04 19:51 | 51.15399 | -0.16419 | 202 ft | 2 kts | 87° |
| 2026-05-04 19:51 | 51.15400 | -0.16406 | 202 ft | 0 kts | 78° |
| 2026-05-04 19:51 | 51.15400 | -0.16407 | 202 ft | 0 kts | 78° |